createdAt,value
2018-09-22T00:01:23.426Z,6.40
2018-09-22T00:03:50.907Z,2.50
2018-09-22T00:06:18.329Z,6.43
2018-09-22T00:08:45.729Z,6.03
2018-09-22T00:11:13.178Z,7.63
2018-09-22T00:13:40.618Z,4.63
2018-09-22T00:16:08.046Z,5.77
2018-09-22T00:18:35.478Z,8.23
2018-09-22T00:21:02.926Z,4.80
2018-09-22T00:23:30.341Z,6.50
2018-09-22T00:25:57.789Z,5.67
2018-09-22T00:28:25.219Z,2.43
2018-09-22T00:30:52.640Z,4.97
2018-09-22T00:33:20.043Z,7.43
2018-09-22T00:35:47.482Z,3.77
2018-09-22T00:38:14.903Z,3.20
2018-09-22T00:40:42.327Z,5.60
2018-09-22T00:43:09.717Z,4.97
2018-09-22T00:45:37.183Z,3.53
2018-09-22T00:48:04.578Z,4.83
2018-09-22T00:50:32.104Z,6.00
2018-09-22T00:52:59.463Z,6.63
2018-09-22T00:55:26.888Z,3.97
2018-09-22T00:57:54.274Z,4.27
2018-09-22T01:00:21.657Z,4.80
2018-09-22T01:02:49.077Z,4.70
2018-09-22T01:05:16.544Z,4.27
2018-09-22T01:07:43.923Z,4.00
2018-09-22T01:10:11.353Z,6.90
2018-09-22T01:12:38.745Z,3.20
2018-09-22T01:15:06.175Z,3.50
2018-09-22T01:17:33.583Z,2.50
2018-09-22T01:20:00.976Z,9.10
2018-09-22T01:22:28.374Z,5.43
2018-09-22T01:24:55.863Z,5.37
2018-09-22T01:27:23.263Z,5.20
2018-09-22T01:29:50.648Z,4.87
2018-09-22T01:32:18.028Z,3.90
2018-09-22T01:34:45.412Z,4.50
2018-09-22T01:37:12.807Z,7.37
2018-09-22T01:39:40.253Z,2.23
2018-09-22T01:42:07.647Z,5.20
2018-09-22T01:44:35.090Z,3.57
2018-09-22T01:47:02.511Z,3.17
2018-09-22T01:49:29.868Z,4.00
2018-09-22T01:51:57.234Z,4.73
2018-09-22T01:54:24.643Z,3.03
2018-09-22T01:56:52.088Z,3.17
2018-09-22T01:59:19.463Z,4.67
2018-09-22T02:01:46.878Z,2.73
2018-09-22T02:04:14.242Z,3.27
2018-09-22T02:06:41.663Z,2.83
2018-09-22T02:09:09.722Z,3.90
2018-09-22T02:11:37.112Z,3.43
2018-09-22T02:14:04.483Z,3.07
2018-09-22T02:16:31.903Z,5.97
2018-09-22T02:18:59.318Z,4.07
2018-09-22T02:21:26.719Z,3.93
2018-09-22T02:23:54.164Z,2.80
2018-09-22T02:26:21.627Z,4.57
2018-09-22T02:28:49.077Z,4.57
2018-09-22T02:31:16.482Z,2.70
2018-09-22T02:33:43.867Z,3.63
2018-09-22T02:36:11.344Z,2.83
2018-09-22T02:38:38.723Z,6.97
2018-09-22T02:41:06.113Z,1.77
2018-09-22T02:43:33.537Z,2.37
2018-09-22T02:46:00.912Z,5.67
2018-09-22T02:48:28.312Z,2.00
2018-09-22T02:50:55.714Z,4.20
2018-09-22T02:53:23.148Z,4.70
2018-09-22T02:55:50.546Z,5.60
2018-09-22T02:58:18.019Z,4.73
2018-09-22T03:00:45.407Z,3.70
2018-09-22T03:03:12.787Z,3.97
2018-09-22T03:05:40.287Z,3.37
2018-09-22T03:08:07.675Z,4.57
2018-09-22T03:10:35.080Z,2.57
2018-09-22T03:13:02.479Z,4.13
2018-09-22T03:15:29.947Z,3.03
2018-09-22T03:17:57.304Z,4.10
2018-09-22T03:20:24.715Z,3.57
2018-09-22T03:22:52.084Z,3.57
2018-09-22T03:25:19.505Z,5.30
2018-09-22T03:27:46.891Z,5.73
2018-09-22T03:30:14.283Z,4.50
2018-09-22T03:32:41.745Z,4.37
2018-09-22T03:35:09.164Z,2.73
2018-09-22T03:37:36.561Z,4.93
2018-09-22T03:40:04.072Z,2.10
2018-09-22T03:42:31.484Z,2.90
2018-09-22T03:44:58.883Z,3.77
2018-09-22T03:47:26.288Z,4.93
2018-09-22T03:49:53.684Z,4.33
2018-09-22T03:52:21.084Z,4.53
2018-09-22T03:54:48.454Z,5.40
2018-09-22T03:57:15.838Z,4.40
2018-09-22T03:59:43.308Z,6.33
2018-09-22T04:02:10.728Z,2.07
2018-09-22T04:04:38.247Z,5.17
2018-09-22T04:07:05.745Z,3.40
2018-09-22T04:09:33.148Z,4.00
2018-09-22T04:12:00.567Z,3.53
2018-09-22T04:14:27.978Z,3.63
2018-09-22T04:16:55.367Z,3.43
2018-09-22T04:19:22.774Z,2.17
2018-09-22T04:21:50.162Z,3.67
2018-09-22T04:24:18.458Z,4.30
2018-09-22T04:26:46.995Z,2.20
2018-09-22T04:29:14.379Z,4.97
2018-09-22T04:31:41.785Z,5.80
2018-09-22T04:34:09.384Z,1.40
2018-09-22T04:36:36.782Z,3.27
2018-09-22T04:39:05.899Z,2.87
2018-09-22T04:41:33.379Z,2.10
2018-09-22T04:44:00.768Z,4.27
2018-09-22T04:46:28.182Z,2.90
2018-09-22T04:48:55.576Z,2.63
2018-09-22T04:51:22.991Z,5.40
2018-09-22T04:53:50.371Z,2.90
2018-09-22T04:56:17.785Z,2.80
2018-09-22T04:58:45.214Z,3.43
2018-09-22T05:01:12.612Z,6.07
2018-09-22T05:03:40.050Z,1.93
2018-09-22T05:06:07.448Z,3.03
2018-09-22T05:08:34.862Z,6.13
2018-09-22T05:11:02.309Z,3.77
2018-09-22T05:13:29.742Z,5.73
2018-09-22T05:15:57.213Z,4.03
2018-09-22T05:18:24.655Z,7.50
2018-09-22T05:20:52.043Z,4.07
2018-09-22T05:23:19.459Z,5.13
2018-09-22T05:25:46.840Z,3.53
2018-09-22T05:28:14.334Z,4.13
2018-09-22T05:30:41.719Z,4.43
2018-09-22T05:33:09.165Z,3.53
2018-09-22T05:35:36.555Z,4.37
2018-09-22T05:38:03.939Z,3.20
2018-09-22T05:40:31.348Z,4.33
2018-09-22T05:42:58.762Z,3.63
2018-09-22T05:45:26.214Z,3.80
2018-09-22T05:47:53.685Z,3.07
2018-09-22T05:50:21.082Z,7.30
2018-09-22T05:52:48.496Z,2.87
2018-09-22T05:55:15.901Z,2.97
2018-09-22T05:57:43.319Z,4.03
2018-09-22T06:00:10.719Z,2.93
2018-09-22T06:02:38.145Z,5.17
2018-09-22T06:05:05.609Z,3.37
2018-09-22T06:07:33.051Z,7.53
2018-09-22T06:10:00.504Z,2.90
2018-09-22T06:12:27.924Z,3.80
2018-09-22T06:14:55.309Z,4.70
2018-09-22T06:17:22.730Z,5.00
2018-09-22T06:19:50.142Z,4.10
2018-09-22T06:22:17.560Z,3.37
2018-09-22T06:24:44.965Z,3.93
2018-09-22T06:27:12.430Z,6.77
2018-09-22T06:29:39.821Z,5.00
2018-09-22T06:32:07.265Z,3.33
2018-09-22T06:34:34.698Z,3.30
2018-09-22T06:37:02.161Z,3.30
2018-09-22T06:39:29.554Z,6.97
2018-09-22T06:41:56.940Z,3.67
2018-09-22T06:44:24.352Z,2.27
2018-09-22T06:46:51.744Z,4.20
2018-09-22T06:49:19.143Z,3.70
2018-09-22T06:51:46.560Z,2.70
2018-09-22T06:54:13.985Z,4.53
2018-09-22T06:56:41.371Z,7.60
2018-09-22T06:59:08.815Z,3.50
2018-09-22T07:01:36.208Z,9.50
2018-09-22T07:04:03.664Z,4.23
2018-09-22T07:06:31.201Z,4.87
2018-09-22T07:08:58.548Z,6.10
2018-09-22T07:11:26.079Z,5.17
2018-09-22T07:13:53.468Z,4.03
2018-09-22T07:16:20.868Z,2.00
2018-09-22T07:18:48.275Z,8.73
2018-09-22T07:21:15.705Z,4.87
2018-09-22T07:23:43.074Z,3.87
2018-09-22T07:26:10.550Z,4.65
2018-09-22T07:28:38.008Z,5.47
2018-09-22T07:31:05.823Z,7.57
2018-09-22T07:33:33.245Z,6.93
2018-09-22T07:36:00.686Z,10.67
2018-09-22T07:38:28.099Z,9.20
2018-09-22T07:40:55.536Z,9.87
2018-09-22T07:43:22.944Z,5.73
2018-09-22T07:45:50.522Z,5.57
2018-09-22T07:48:17.858Z,5.67
2018-09-22T07:50:45.279Z,4.13
2018-09-22T07:53:12.693Z,4.27
2018-09-22T07:55:40.106Z,5.07
2018-09-22T07:58:07.600Z,3.70
2018-09-22T08:00:35.080Z,4.77
2018-09-22T08:03:02.474Z,3.93
2018-09-22T08:05:29.869Z,6.37
2018-09-22T08:07:57.309Z,3.93
2018-09-22T08:10:24.670Z,3.33
2018-09-22T08:12:52.064Z,4.67
2018-09-22T08:15:19.486Z,5.63
2018-09-22T08:17:46.909Z,4.33
2018-09-22T08:20:14.359Z,3.43
2018-09-22T08:22:41.776Z,5.13
2018-09-22T08:25:09.273Z,4.83
2018-09-22T08:27:36.629Z,4.27
2018-09-22T08:30:04.851Z,4.37
2018-09-22T08:32:32.327Z,4.47
2018-09-22T08:34:59.726Z,3.17
2018-09-22T08:37:27.174Z,3.13
2018-09-22T08:39:54.577Z,3.63
2018-09-22T08:42:21.999Z,6.80
2018-09-22T08:44:49.437Z,3.73
2018-09-22T08:47:16.844Z,4.43
2018-09-22T08:49:44.375Z,4.67
2018-09-22T08:52:11.710Z,4.10
2018-09-22T08:54:39.119Z,4.13
2018-09-22T08:57:06.531Z,2.07
2018-09-22T08:59:33.949Z,6.77
2018-09-22T09:02:01.412Z,5.27
2018-09-22T09:04:28.976Z,4.63
2018-09-22T09:06:56.459Z,4.30
2018-09-22T09:09:23.826Z,3.70
2018-09-22T09:11:51.209Z,9.00
2018-09-22T09:14:18.627Z,2.70
2018-09-22T09:16:46.031Z,3.43
2018-09-22T09:19:13.445Z,7.60
2018-09-22T09:21:40.891Z,7.13
2018-09-22T09:24:08.315Z,5.77
2018-09-22T09:26:35.720Z,2.73
2018-09-22T09:29:03.156Z,5.07
2018-09-22T09:31:30.551Z,5.03
2018-09-22T09:33:57.960Z,4.57
2018-09-22T09:36:25.354Z,3.77
2018-09-22T09:38:56.761Z,3.43
2018-09-22T09:41:24.210Z,4.33
2018-09-22T09:43:52.071Z,5.73
2018-09-22T09:46:19.657Z,2.97
2018-09-22T09:48:47.080Z,6.77
2018-09-22T09:51:14.485Z,3.20
2018-09-22T09:53:41.940Z,4.77
2018-09-22T09:56:09.377Z,3.17
2018-09-22T09:58:36.772Z,3.93
2018-09-22T10:01:04.214Z,2.87
2018-09-22T10:03:31.608Z,4.03
2018-09-22T10:05:59.040Z,3.53
2018-09-22T10:08:26.424Z,3.63
2018-09-22T10:10:53.851Z,4.00
2018-09-22T10:13:21.259Z,4.33
2018-09-22T10:15:48.667Z,7.17
2018-09-22T10:18:16.101Z,2.43
2018-09-22T10:20:43.520Z,6.30
2018-09-22T10:23:10.945Z,5.30
2018-09-22T10:25:38.340Z,3.80
2018-09-22T10:28:05.836Z,3.80
2018-09-22T10:30:33.233Z,4.40
2018-09-22T10:33:00.631Z,4.77
2018-09-22T10:35:28.024Z,2.57
2018-09-22T10:37:55.440Z,4.70
2018-09-22T10:40:22.885Z,2.83
2018-09-22T10:42:50.280Z,4.73
2018-09-22T10:45:17.707Z,2.43
2018-09-22T10:47:45.192Z,4.43
2018-09-22T10:50:12.582Z,2.23
2018-09-22T10:52:40.166Z,2.50
2018-09-22T10:55:07.527Z,2.70
2018-09-22T10:57:34.955Z,3.57
2018-09-22T11:00:02.330Z,3.90
2018-09-22T11:02:29.770Z,2.40
2018-09-22T11:04:57.217Z,3.00
2018-09-22T11:07:24.654Z,3.60
2018-09-22T11:09:52.102Z,5.03
2018-09-22T11:12:19.632Z,7.63
2018-09-22T11:14:47.092Z,2.30
2018-09-22T11:17:14.522Z,2.20
2018-09-22T11:19:41.940Z,4.80
2018-09-22T11:22:09.352Z,2.90
2018-09-22T11:24:36.750Z,3.03
2018-09-22T11:27:04.243Z,5.00
2018-09-22T11:29:31.615Z,3.07
2018-09-22T11:31:59.044Z,2.07
2018-09-22T11:34:26.522Z,3.33
2018-09-22T11:36:53.955Z,3.10
2018-09-22T11:39:21.350Z,2.77
2018-09-22T11:41:48.759Z,2.80
2018-09-22T11:44:16.222Z,4.37
2018-09-22T11:46:43.655Z,3.07
2018-09-22T11:49:11.004Z,3.20
2018-09-22T11:51:38.441Z,3.10
2018-09-22T11:54:05.864Z,3.70
2018-09-22T11:56:33.381Z,4.20
2018-09-22T11:59:00.777Z,4.27
2018-09-22T12:01:28.237Z,3.23
2018-09-22T12:03:55.757Z,3.77
2018-09-22T12:06:23.515Z,2.23
2018-09-22T12:08:50.895Z,3.43
2018-09-22T12:11:18.371Z,2.30
2018-09-22T12:13:45.813Z,3.40
2018-09-22T12:16:13.252Z,2.37
2018-09-22T12:18:40.701Z,3.03
2018-09-22T12:21:08.102Z,3.57
2018-09-22T12:23:35.537Z,2.63
2018-09-22T12:26:02.962Z,5.43
2018-09-22T12:28:30.368Z,2.40
2018-09-22T12:30:57.821Z,2.70
2018-09-22T12:33:25.236Z,2.97
2018-09-22T12:35:52.672Z,2.03
2018-09-22T12:38:20.101Z,3.23
2018-09-22T12:40:47.573Z,4.53
2018-09-22T12:43:15.011Z,2.90
2018-09-22T12:45:42.415Z,3.77
2018-09-22T12:48:09.835Z,3.87
2018-09-22T12:50:37.273Z,2.27
2018-09-22T12:53:04.694Z,2.20
2018-09-22T12:55:32.141Z,3.27
2018-09-22T12:57:59.556Z,2.87
2018-09-22T13:00:26.981Z,4.03
2018-09-22T13:02:54.381Z,2.80
2018-09-22T13:05:21.841Z,2.20
2018-09-22T13:07:49.532Z,2.07
2018-09-22T13:10:16.986Z,3.63
2018-09-22T13:12:44.641Z,2.93
2018-09-22T13:15:12.057Z,5.07
2018-09-22T13:17:39.452Z,1.27
2018-09-22T13:20:06.904Z,4.37
2018-09-22T13:22:34.321Z,3.53
2018-09-22T13:25:01.770Z,3.43
2018-09-22T13:27:29.195Z,3.13
2018-09-22T13:29:56.601Z,2.23
2018-09-22T13:32:24.025Z,2.20
2018-09-22T13:34:51.435Z,2.83
2018-09-22T13:37:18.905Z,2.63
2018-09-22T13:39:46.329Z,1.80
2018-09-22T13:42:13.746Z,2.70
2018-09-22T13:44:41.136Z,2.50
2018-09-22T13:47:08.576Z,3.17
2018-09-22T13:49:36.000Z,3.37
2018-09-22T13:52:03.435Z,1.97
2018-09-22T13:54:30.887Z,1.53
2018-09-22T13:56:58.306Z,2.53
2018-09-22T13:59:25.717Z,2.03
2018-09-22T14:01:53.142Z,3.33
2018-09-22T14:04:20.577Z,1.73
2018-09-22T14:06:47.968Z,3.57
2018-09-22T14:09:15.405Z,3.77
2018-09-22T14:11:42.832Z,2.90
2018-09-22T14:14:10.291Z,1.73
2018-09-22T14:16:37.676Z,3.03
2018-09-22T14:19:05.132Z,3.70
2018-09-22T14:21:32.537Z,2.80
2018-09-22T14:24:00.038Z,1.57
2018-09-22T14:26:27.428Z,3.40
2018-09-22T14:28:54.891Z,3.80
2018-09-22T14:31:22.279Z,2.30
2018-09-22T14:33:49.727Z,3.02
2018-09-22T14:36:17.169Z,2.90
2018-09-22T14:38:44.608Z,2.97
2018-09-22T14:41:12.032Z,2.53
2018-09-22T14:43:39.507Z,1.77
2018-09-22T14:46:07.264Z,4.50
2018-09-22T14:48:36.202Z,2.07
2018-09-22T14:51:05.596Z,2.30
2018-09-22T14:53:33.132Z,3.30
2018-09-22T14:56:00.676Z,3.80
2018-09-22T14:58:28.139Z,1.70
2018-09-22T15:00:55.548Z,3.70
2018-09-22T15:03:23.026Z,1.70
2018-09-22T15:05:50.499Z,3.40
2018-09-22T15:08:18.007Z,2.73
2018-09-22T15:10:45.468Z,4.87
2018-09-22T15:13:12.863Z,4.57
2018-09-22T15:15:40.348Z,2.83
2018-09-22T15:18:07.822Z,2.23
2018-09-22T15:20:35.267Z,1.87
2018-09-22T15:23:02.667Z,3.43
2018-09-22T15:25:30.092Z,2.77
2018-09-22T15:27:57.493Z,3.03
2018-09-22T15:30:24.971Z,3.00
2018-09-22T15:32:52.379Z,2.20
2018-09-22T15:35:19.852Z,3.93
2018-09-22T15:37:47.228Z,4.60
2018-09-22T15:40:14.652Z,3.23
2018-09-22T15:42:42.121Z,3.07
2018-09-22T15:45:09.656Z,3.20
2018-09-22T15:47:37.272Z,2.43
2018-09-22T15:50:04.810Z,3.07
2018-09-22T15:52:32.228Z,3.03
2018-09-22T15:54:59.583Z,2.90
2018-09-22T15:57:26.968Z,3.53
2018-09-22T15:59:54.373Z,1.97
2018-09-22T16:02:21.771Z,2.80
2018-09-22T16:04:49.248Z,8.27
2018-09-22T16:07:16.719Z,15.30
2018-09-22T16:09:44.153Z,10.10
2018-09-22T16:12:15.571Z,5.43
2018-09-22T16:14:43.017Z,8.07
2018-09-22T16:17:10.417Z,12.67
2018-09-22T16:19:37.923Z,5.30
2018-09-22T16:22:05.323Z,2.43
2018-09-22T16:24:32.803Z,2.27
2018-09-22T16:27:00.197Z,2.40
2018-09-22T16:29:27.714Z,2.37
2018-09-22T16:31:55.123Z,3.43
2018-09-22T16:34:22.558Z,2.73
2018-09-22T16:36:50.019Z,2.53
2018-09-22T16:39:17.469Z,2.50
2018-09-22T16:41:44.911Z,2.47
2018-09-22T16:44:12.307Z,3.53
2018-09-22T16:46:39.761Z,3.57
2018-09-22T16:49:07.259Z,7.47
2018-09-22T16:51:34.715Z,3.03
2018-09-22T16:54:02.149Z,1.80
2018-09-22T16:56:29.621Z,3.93
2018-09-22T16:58:57.068Z,1.93
2018-09-22T17:01:24.509Z,2.23
2018-09-22T17:03:51.961Z,2.33
2018-09-22T17:06:19.506Z,3.60
2018-09-22T17:08:47.041Z,3.53
2018-09-22T17:11:14.478Z,5.63
2018-09-22T17:13:41.918Z,3.10
2018-09-22T17:16:09.395Z,3.43
2018-09-22T17:18:36.822Z,3.47
2018-09-22T17:21:04.319Z,25.30
2018-09-22T17:23:31.742Z,5.50
2018-09-22T17:25:59.211Z,3.73
2018-09-22T17:28:26.664Z,3.70
2018-09-22T17:30:54.068Z,4.17
2018-09-22T17:33:21.556Z,3.87
2018-09-22T17:35:48.978Z,4.87
2018-09-22T17:38:16.687Z,3.20
2018-09-22T17:40:44.116Z,3.77
2018-09-22T17:43:11.632Z,2.17
2018-09-22T17:45:39.158Z,5.53
2018-09-22T17:48:06.597Z,2.47
2018-09-22T17:50:34.013Z,2.30
2018-09-22T17:53:01.495Z,3.55
2018-09-22T17:55:28.870Z,5.73
2018-09-22T17:57:56.303Z,2.97
2018-09-22T18:00:23.739Z,5.03
2018-09-22T18:02:51.237Z,6.03
2018-09-22T18:05:18.667Z,5.13
2018-09-22T18:07:46.083Z,4.33
2018-09-22T18:10:13.532Z,3.00
2018-09-22T18:12:40.973Z,3.23
2018-09-22T18:15:08.123Z,2.30
2018-09-22T18:17:35.524Z,3.57
2018-09-22T18:20:03.058Z,2.83
2018-09-22T18:22:30.482Z,2.37
2018-09-22T18:24:57.926Z,3.57
2018-09-22T18:27:25.384Z,4.40
2018-09-22T18:29:52.895Z,2.87
2018-09-22T18:32:20.364Z,2.50
2018-09-22T18:34:47.870Z,4.30
2018-09-22T18:37:15.363Z,3.73
2018-09-22T18:39:42.847Z,3.00
2018-09-22T18:42:10.275Z,3.97
2018-09-22T18:44:37.716Z,2.93
2018-09-22T18:47:05.169Z,2.43
2018-09-22T18:49:32.654Z,2.03
2018-09-22T18:52:00.096Z,4.40
2018-09-22T18:54:27.533Z,6.07
2018-09-22T18:56:54.957Z,6.07
2018-09-22T18:59:22.461Z,23.70
2018-09-22T19:01:49.872Z,20.13
2018-09-22T19:04:17.304Z,14.97
2018-09-22T19:06:44.804Z,13.50
2018-09-22T19:09:12.294Z,8.60
2018-09-22T19:11:39.922Z,5.27
2018-09-22T19:14:11.319Z,5.87
2018-09-22T19:16:43.389Z,15.33
2018-09-22T19:19:14.345Z,6.10
2018-09-22T19:21:46.788Z,5.10
2018-09-22T19:24:29.564Z,7.80
2018-09-22T19:27:01.774Z,8.93
2018-09-22T19:30:35.244Z,11.20
2018-09-22T19:33:07.902Z,18.33
2018-09-22T19:35:38.745Z,30.37
2018-09-22T19:38:13.779Z,30.17
2018-09-22T19:40:46.429Z,16.40
2018-09-22T19:43:19.792Z,14.43
2018-09-22T19:45:49.459Z,3.73
2018-09-22T19:48:38.721Z,4.50
2018-09-22T19:51:09.985Z,5.63
2018-09-22T19:53:39.554Z,5.37
2018-09-22T19:56:07.060Z,6.47
2018-09-22T19:58:34.564Z,7.53
2018-09-22T20:01:02.620Z,4.23
2018-09-22T20:03:30.995Z,3.73
2018-09-22T20:05:59.260Z,4.03
2018-09-22T20:08:26.750Z,4.77
2018-09-22T20:10:54.227Z,7.53
2018-09-22T20:13:21.725Z,8.57
2018-09-22T20:15:49.259Z,5.63
2018-09-22T20:18:17.219Z,2.53
2018-09-22T20:20:44.678Z,23.87
2018-09-22T20:23:12.838Z,16.80
2018-09-22T20:25:40.313Z,6.70
2018-09-22T20:28:07.797Z,3.73
2018-09-22T20:30:35.827Z,5.20
2018-09-22T20:33:03.893Z,4.33
2018-09-22T20:35:32.130Z,5.40
2018-09-22T20:37:59.549Z,5.13
2018-09-22T20:40:27.629Z,7.87
2018-09-22T20:42:55.582Z,11.50
2018-09-22T20:45:23.385Z,13.87
2018-09-22T20:47:51.028Z,21.57
2018-09-22T20:50:18.529Z,36.43
2018-09-22T20:52:45.948Z,13.60
2018-09-22T20:55:13.581Z,7.93
2018-09-22T20:57:41.622Z,6.60
2018-09-22T21:00:10.336Z,6.83
2018-09-22T21:02:38.733Z,4.47
2018-09-22T21:05:06.909Z,5.60
2018-09-22T21:07:35.850Z,4.43
2018-09-22T21:10:04.487Z,5.93
2018-09-22T21:12:31.947Z,6.97
2018-09-22T21:14:59.478Z,6.73
2018-09-22T21:17:26.945Z,5.13
2018-09-22T21:19:54.380Z,7.03
2018-09-22T21:22:26.068Z,12.73
2018-09-22T21:24:53.548Z,8.63
2018-09-22T21:27:20.979Z,5.40
2018-09-22T21:29:48.499Z,3.50
2018-09-22T21:32:15.933Z,4.23
2018-09-22T21:34:43.358Z,6.43
2018-09-22T21:37:10.868Z,4.67
2018-09-22T21:39:38.266Z,4.13
2018-09-22T21:42:14.050Z,4.37
2018-09-22T21:44:41.533Z,4.47
2018-09-22T21:47:08.972Z,5.33
2018-09-22T21:49:36.420Z,6.37
2018-09-22T21:52:03.849Z,5.40
2018-09-22T21:54:31.302Z,3.07
2018-09-22T21:56:58.759Z,5.20
2018-09-22T21:59:26.180Z,4.67
2018-09-22T22:01:53.624Z,3.10
2018-09-22T22:04:21.055Z,4.33
2018-09-22T22:06:48.598Z,5.83
2018-09-22T22:09:16.021Z,4.27
2018-09-22T22:11:43.519Z,3.90
2018-09-22T22:14:11.007Z,3.23
2018-09-22T22:16:39.118Z,4.60
2018-09-22T22:19:06.693Z,3.43
2018-09-22T22:21:34.248Z,5.50
2018-09-22T22:24:01.654Z,3.97
2018-09-22T22:26:29.209Z,4.30
2018-09-22T22:28:56.665Z,4.37
2018-09-22T22:31:24.147Z,5.10
2018-09-22T22:33:52.213Z,2.50
2018-09-22T22:36:20.212Z,4.07
2018-09-22T22:38:47.718Z,4.13
2018-09-22T22:41:15.285Z,5.13
2018-09-22T22:43:42.768Z,3.93
2018-09-22T22:46:10.403Z,3.10
2018-09-22T22:48:37.803Z,5.53
2018-09-22T22:51:05.553Z,3.30
2018-09-22T22:53:33.065Z,7.57
2018-09-22T22:56:00.492Z,4.73
2018-09-22T22:58:27.943Z,3.97
2018-09-22T23:00:55.360Z,4.40
2018-09-22T23:03:22.834Z,4.43
2018-09-22T23:05:50.298Z,3.73
2018-09-22T23:08:17.756Z,3.90
2018-09-22T23:10:45.214Z,3.13
2018-09-22T23:13:12.724Z,4.50
2018-09-22T23:15:40.167Z,5.17
2018-09-22T23:18:07.588Z,6.43
2018-09-22T23:20:35.144Z,4.13
2018-09-22T23:23:02.579Z,8.23
2018-09-22T23:25:29.961Z,4.17
2018-09-22T23:27:57.315Z,5.93
2018-09-22T23:30:24.773Z,5.80
2018-09-22T23:32:52.198Z,3.87
2018-09-22T23:35:19.669Z,3.73
2018-09-22T23:37:47.025Z,3.30
2018-09-22T23:40:14.489Z,2.37
2018-09-22T23:42:41.920Z,2.73
2018-09-22T23:45:09.359Z,4.13
2018-09-22T23:47:38.573Z,3.80
2018-09-22T23:50:06.039Z,2.93
2018-09-22T23:52:33.465Z,4.73
2018-09-22T23:55:00.939Z,2.17
2018-09-22T23:57:28.333Z,4.67
2018-09-22T23:59:55.744Z,4.67
